createdAt,value
2019-03-05T00:01:02.778Z,80.65
2019-03-05T00:03:31.644Z,81.30
2019-03-05T00:06:00.597Z,82.01
2019-03-05T00:08:29.560Z,82.32
2019-03-05T00:10:58.781Z,82.66
2019-03-05T00:13:27.483Z,83.32
2019-03-05T00:15:56.304Z,83.78
2019-03-05T00:18:25.263Z,83.58
2019-03-05T00:20:53.988Z,83.68
2019-03-05T00:23:46.324Z,83.96
2019-03-05T00:26:14.447Z,84.19
2019-03-05T00:29:23.242Z,83.77
2019-03-05T00:31:52.319Z,83.81
2019-03-05T00:34:36.253Z,84.07
2019-03-05T00:37:10.187Z,84.63
2019-03-05T00:40:03.343Z,84.00
2019-03-05T00:43:01.262Z,84.24
2019-03-05T00:46:01.760Z,83.74
2019-03-05T00:49:00.238Z,83.71
2019-03-05T00:52:03.783Z,83.48
2019-03-05T00:54:52.014Z,83.59
2019-03-05T00:57:48.036Z,83.72
2019-03-05T01:00:39.631Z,83.46
2019-03-05T01:03:37.906Z,83.66
2019-03-05T01:06:17.635Z,83.54
2019-03-05T01:08:46.759Z,83.03
2019-03-05T01:11:15.888Z,81.56
2019-03-05T01:13:45.048Z,83.08
2019-03-05T01:16:14.947Z,81.53
2019-03-05T01:18:43.791Z,82.59
2019-03-05T01:21:12.674Z,81.82
2019-03-05T01:23:41.858Z,81.86
2019-03-05T01:26:10.910Z,81.43
2019-03-05T01:28:39.846Z,80.73
2019-03-05T01:31:54.922Z,80.60
2019-03-05T01:34:31.639Z,80.55
2019-03-05T01:37:01.681Z,80.09
2019-03-05T01:39:38.935Z,80.08
2019-03-05T01:42:08.346Z,78.94
2019-03-05T01:44:37.047Z,78.99
2019-03-05T01:47:08.443Z,78.51
2019-03-05T01:49:37.211Z,78.41
2019-03-05T01:52:06.183Z,77.59
2019-03-05T01:54:35.146Z,77.86
2019-03-05T01:57:04.178Z,77.47
2019-03-05T01:59:32.877Z,76.85
2019-03-05T02:02:01.677Z,77.04
2019-03-05T02:04:30.391Z,77.20
2019-03-05T02:06:59.353Z,76.91
2019-03-05T02:09:28.464Z,76.57
2019-03-05T02:11:57.427Z,77.11
2019-03-05T02:14:26.083Z,76.48
2019-03-05T02:16:55.283Z,75.75
2019-03-05T02:19:38.580Z,75.69
2019-03-05T02:22:10.080Z,75.49
2019-03-05T02:25:21.033Z,74.34
2019-03-05T02:28:13.807Z,74.55
2019-03-05T02:31:04.437Z,74.72
2019-03-05T02:34:12.547Z,74.95
2019-03-05T02:37:15.942Z,74.81
2019-03-05T02:40:22.705Z,74.10
2019-03-05T02:43:35.767Z,74.53
2019-03-05T02:46:27.541Z,74.94
2019-03-05T02:49:45.615Z,75.04
2019-03-05T02:52:45.766Z,74.61
2019-03-05T02:55:37.118Z,74.23
2019-03-05T02:58:04.499Z,74.03
2019-03-05T03:00:41.746Z,74.07
2019-03-05T03:03:24.236Z,74.19
2019-03-05T03:05:59.410Z,73.69
2019-03-05T03:08:30.880Z,74.71
2019-03-05T03:10:59.911Z,74.47
2019-03-05T03:13:28.649Z,74.77
2019-03-05T03:15:57.317Z,74.32
2019-03-05T03:18:26.294Z,74.08
2019-03-05T03:20:55.351Z,73.44
2019-03-05T03:23:24.316Z,73.67
2019-03-05T03:25:53.002Z,73.83
2019-03-05T03:28:21.760Z,73.51
2019-03-05T03:30:50.464Z,74.10
2019-03-05T03:33:19.165Z,73.66
2019-03-05T03:35:48.445Z,73.86
2019-03-05T03:38:17.402Z,74.23
2019-03-05T03:40:46.165Z,74.60
2019-03-05T03:43:14.946Z,74.11
2019-03-05T03:45:43.641Z,74.02
2019-03-05T03:48:12.604Z,74.07
2019-03-05T03:50:41.541Z,74.59
2019-03-05T03:53:10.348Z,74.06
2019-03-05T03:55:39.179Z,73.97
2019-03-05T03:58:08.212Z,73.98
2019-03-05T04:00:36.951Z,74.01
2019-03-05T04:03:05.669Z,73.95
2019-03-05T04:05:34.661Z,73.67
2019-03-05T04:08:03.378Z,74.56
2019-03-05T04:10:32.071Z,77.12
2019-03-05T04:13:01.041Z,77.94
2019-03-05T04:15:29.744Z,77.93
2019-03-05T04:17:58.529Z,76.82
2019-03-05T04:20:33.604Z,77.09
2019-03-05T04:23:02.647Z,77.61
2019-03-05T04:25:31.840Z,76.62
2019-03-05T04:28:00.532Z,76.75
2019-03-05T04:30:29.496Z,76.69
2019-03-05T04:32:58.454Z,76.98
2019-03-05T04:35:27.502Z,78.05
2019-03-05T04:37:56.437Z,80.14
2019-03-05T04:40:25.463Z,80.95
2019-03-05T04:42:54.220Z,81.33
2019-03-05T04:45:56.464Z,81.33
2019-03-05T04:48:25.405Z,81.32
2019-03-05T04:51:03.179Z,81.39
2019-03-05T04:53:31.885Z,81.08
2019-03-05T04:56:00.929Z,81.47
2019-03-05T04:58:29.864Z,81.08
2019-03-05T05:00:58.807Z,80.57
2019-03-05T05:03:27.775Z,80.80
2019-03-05T05:05:56.820Z,80.85
2019-03-05T05:08:25.787Z,80.71
2019-03-05T05:10:54.504Z,80.18
2019-03-05T05:13:23.208Z,80.51
2019-03-05T05:15:51.927Z,80.47
2019-03-05T05:18:20.629Z,80.60
2019-03-05T05:20:49.666Z,80.30
2019-03-05T05:23:18.855Z,80.44
2019-03-05T05:25:47.569Z,80.70
2019-03-05T05:28:16.506Z,80.20
2019-03-05T05:30:45.204Z,80.14
2019-03-05T05:33:14.439Z,79.57
2019-03-05T05:35:43.407Z,79.76
2019-03-05T05:38:12.108Z,78.76
2019-03-05T05:40:45.887Z,78.76
2019-03-05T05:43:20.676Z,79.21
2019-03-05T05:45:50.860Z,78.90
2019-03-05T05:48:20.065Z,78.91
2019-03-05T05:50:49.172Z,78.17
2019-03-05T05:53:18.003Z,77.77
2019-03-05T05:55:46.785Z,78.48
2019-03-05T05:58:15.963Z,77.77
2019-03-05T06:00:47.237Z,77.75
2019-03-05T06:03:16.198Z,77.65
2019-03-05T06:05:45.510Z,77.69
2019-03-05T06:08:14.209Z,77.61
2019-03-05T06:10:43.176Z,77.36
2019-03-05T06:13:12.183Z,77.59
2019-03-05T06:15:41.779Z,77.39
2019-03-05T06:18:10.752Z,76.69
2019-03-05T06:20:39.475Z,76.83
2019-03-05T06:23:08.701Z,76.86
2019-03-05T06:25:37.841Z,76.43
2019-03-05T06:28:06.770Z,76.64
2019-03-05T06:30:36.388Z,77.51
2019-03-05T06:33:05.445Z,77.53
2019-03-05T06:35:34.478Z,77.71
2019-03-05T06:38:03.319Z,78.02
2019-03-05T06:40:32.244Z,77.94
2019-03-05T06:43:01.189Z,77.70
2019-03-05T06:45:30.172Z,76.89
2019-03-05T06:47:59.228Z,76.92
2019-03-05T06:50:28.083Z,76.27
2019-03-05T06:52:57.124Z,76.34
2019-03-05T06:55:25.974Z,76.30
2019-03-05T06:57:55.541Z,76.39
2019-03-05T07:00:36.654Z,75.94
2019-03-05T07:03:06.161Z,75.69
2019-03-05T07:06:11.259Z,75.96
2019-03-05T07:09:00.929Z,75.70
2019-03-05T07:12:14.394Z,76.07
2019-03-05T07:15:17.189Z,75.79
2019-03-05T07:17:50.425Z,76.23
2019-03-05T07:20:46.457Z,76.56
2019-03-05T07:24:06.783Z,76.40
2019-03-05T07:26:36.141Z,77.04
2019-03-05T07:29:05.390Z,76.47
2019-03-05T07:31:34.138Z,76.32
2019-03-05T07:34:04.263Z,76.38
2019-03-05T07:36:33.020Z,74.95
2019-03-05T07:39:01.768Z,75.03
2019-03-05T07:41:30.988Z,75.31
2019-03-05T07:44:00.351Z,75.40
2019-03-05T07:46:29.107Z,74.73
2019-03-05T07:48:58.215Z,74.27
2019-03-05T07:51:27.491Z,73.70
2019-03-05T07:53:56.279Z,74.76
2019-03-05T07:56:25.378Z,75.23
2019-03-05T07:58:54.317Z,76.48
2019-03-05T08:01:23.048Z,76.26
2019-03-05T08:03:51.789Z,75.80
2019-03-05T08:06:20.475Z,75.63
2019-03-05T08:09:25.073Z,75.27
2019-03-05T08:11:54.240Z,75.58
2019-03-05T08:14:52.999Z,74.05
2019-03-05T08:17:22.586Z,74.52
2019-03-05T08:19:51.279Z,73.97
2019-03-05T08:22:20.306Z,74.57
2019-03-05T08:24:49.322Z,74.41
2019-03-05T08:27:18.088Z,74.77
2019-03-05T08:29:47.122Z,75.43
2019-03-05T08:32:15.905Z,76.30
2019-03-05T08:34:44.709Z,77.82
2019-03-05T08:37:13.698Z,78.59
2019-03-05T08:39:42.764Z,79.21
2019-03-05T08:42:11.784Z,79.88
2019-03-05T08:44:49.992Z,79.30
2019-03-05T08:47:11.551Z,79.48
2019-03-05T08:49:40.254Z,78.52
2019-03-05T08:52:09.245Z,77.24
2019-03-05T08:54:38.027Z,78.74
2019-03-05T08:57:06.737Z,79.98
2019-03-05T08:59:35.955Z,80.93
2019-03-05T09:02:05.043Z,81.65
2019-03-05T09:04:33.814Z,81.11
2019-03-05T09:07:02.505Z,81.48
2019-03-05T09:09:31.528Z,81.24
2019-03-05T09:12:00.589Z,81.44
2019-03-05T09:14:29.490Z,81.28
2019-03-05T09:16:58.189Z,80.13
2019-03-05T09:19:26.989Z,79.48
2019-03-05T09:21:55.954Z,78.38
2019-03-05T09:24:25.001Z,78.29
2019-03-05T09:26:53.780Z,78.87
2019-03-05T09:29:22.976Z,78.19
2019-03-05T09:31:51.929Z,76.09
2019-03-05T09:34:20.649Z,75.07
2019-03-05T09:36:51.392Z,76.21
2019-03-05T09:39:20.222Z,75.83
2019-03-05T09:41:49.012Z,75.88
2019-03-05T09:44:17.844Z,74.48
2019-03-05T09:46:46.608Z,74.71
2019-03-05T09:49:15.320Z,74.53
2019-03-05T09:51:44.050Z,74.44
2019-03-05T09:54:12.750Z,75.29
2019-03-05T09:56:41.544Z,73.98
2019-03-05T09:59:10.257Z,72.94
2019-03-05T10:01:39.036Z,72.46
2019-03-05T10:04:08.143Z,73.78
2019-03-05T10:06:37.153Z,73.32
2019-03-05T10:09:07.801Z,74.07
2019-03-05T10:11:36.561Z,74.61
2019-03-05T10:14:05.413Z,75.00
2019-03-05T10:16:34.108Z,75.24
2019-03-05T10:19:04.549Z,75.56
2019-03-05T10:21:33.932Z,76.90
2019-03-05T10:24:10.438Z,75.95
2019-03-05T10:26:33.591Z,77.17
2019-03-05T10:29:02.952Z,77.07
2019-03-05T10:35:00.622Z,76.56
2019-03-05T10:37:29.847Z,76.90
2019-03-05T10:39:58.693Z,77.00
2019-03-05T10:42:31.760Z,77.05
2019-03-05T10:44:58.561Z,77.02
2019-03-05T10:47:27.275Z,76.89
2019-03-05T10:49:56.566Z,78.42
2019-03-05T10:52:25.576Z,75.87
2019-03-05T10:54:54.308Z,76.07
2019-03-05T10:57:23.085Z,74.64
2019-03-05T10:59:51.912Z,74.53
2019-03-05T11:02:21.258Z,74.66
2019-03-05T11:04:52.300Z,76.16
2019-03-05T11:07:20.866Z,75.62
2019-03-05T11:09:51.620Z,75.96
2019-03-05T11:12:20.376Z,73.39
2019-03-05T11:14:49.217Z,74.17
2019-03-05T11:17:18.373Z,74.34
2019-03-05T11:19:47.079Z,73.37
2019-03-05T11:22:16.142Z,73.15
2019-03-05T11:24:45.098Z,73.23
2019-03-05T11:27:13.903Z,73.88
2019-03-05T11:29:42.862Z,74.11
2019-03-05T11:32:11.753Z,73.16
2019-03-05T11:34:40.445Z,73.76
2019-03-05T11:37:09.668Z,73.15
2019-03-05T11:39:38.424Z,73.60
2019-03-05T11:42:07.446Z,73.25
2019-03-05T11:44:36.473Z,72.10
2019-03-05T11:47:05.611Z,71.26
2019-03-05T11:49:34.364Z,72.32
2019-03-05T11:52:03.148Z,71.70
2019-03-05T11:54:32.096Z,72.09
2019-03-05T11:57:01.698Z,71.81
2019-03-05T11:59:30.759Z,73.22
2019-03-05T12:01:59.450Z,73.02
2019-03-05T12:04:28.151Z,72.60
2019-03-05T12:06:56.831Z,72.21
2019-03-05T12:09:25.803Z,73.15
2019-03-05T12:11:54.831Z,72.99
2019-03-05T12:14:23.749Z,72.87
2019-03-05T12:16:52.477Z,72.59
2019-03-05T12:19:21.160Z,72.71
2019-03-05T12:21:49.883Z,71.37
2019-03-05T12:24:23.847Z,70.46
2019-03-05T12:26:49.183Z,70.06
2019-03-05T12:29:17.915Z,70.10
2019-03-05T12:31:46.880Z,70.61
2019-03-05T12:34:15.614Z,70.15
2019-03-05T12:36:44.349Z,70.50
2019-03-05T12:39:13.302Z,70.46
2019-03-05T12:41:42.097Z,70.28
2019-03-05T12:44:10.835Z,69.54
2019-03-05T12:46:39.889Z,69.07
2019-03-05T12:49:08.992Z,68.43
2019-03-05T12:51:37.783Z,68.73
2019-03-05T12:54:06.812Z,69.00
2019-03-05T12:56:35.817Z,69.23
2019-03-05T12:59:04.684Z,69.53
2019-03-05T13:01:34.962Z,69.14
2019-03-05T13:04:03.935Z,68.75
2019-03-05T13:06:32.910Z,67.78
2019-03-05T13:09:01.666Z,66.83
2019-03-05T13:11:30.369Z,67.54
2019-03-05T13:14:07.274Z,66.59
2019-03-05T13:16:30.071Z,65.87
2019-03-05T13:18:58.754Z,65.52
2019-03-05T13:21:28.118Z,63.39
2019-03-05T13:23:57.073Z,63.71
2019-03-05T13:26:26.042Z,64.52
2019-03-05T13:28:55.093Z,65.36
2019-03-05T13:31:24.115Z,64.11
2019-03-05T13:33:52.827Z,64.07
2019-03-05T13:36:21.524Z,63.61
2019-03-05T13:38:50.825Z,64.58
2019-03-05T13:41:19.516Z,63.27
2019-03-05T13:43:48.337Z,63.34
2019-03-05T13:46:21.993Z,64.00
2019-03-05T13:49:18.285Z,64.63
2019-03-05T13:52:32.222Z,62.45
2019-03-05T13:55:14.441Z,62.76
2019-03-05T13:58:26.808Z,61.44
2019-03-05T14:00:55.612Z,60.92
2019-03-05T14:03:41.311Z,61.27
2019-03-05T14:06:41.307Z,60.85
2019-03-05T14:09:21.642Z,60.10
2019-03-05T14:11:52.026Z,60.31
2019-03-05T14:14:22.921Z,60.04
2019-03-05T14:17:13.727Z,58.73
2019-03-05T14:19:42.563Z,58.78
2019-03-05T14:22:11.533Z,59.47
2019-03-05T14:24:40.329Z,59.71
2019-03-05T14:27:09.164Z,60.28
2019-03-05T14:29:38.199Z,60.73
2019-03-05T14:32:08.054Z,59.87
2019-03-05T14:34:37.161Z,60.30
2019-03-05T14:37:06.250Z,59.70
2019-03-05T14:39:36.223Z,58.89
2019-03-05T14:42:08.391Z,57.61
2019-03-05T14:44:40.140Z,59.40
2019-03-05T14:47:08.538Z,58.01
2019-03-05T14:49:37.587Z,57.33
2019-03-05T14:52:06.726Z,55.28
2019-03-05T14:54:35.400Z,56.48
2019-03-05T14:57:04.177Z,56.31
2019-03-05T14:59:33.086Z,56.82
2019-03-05T15:02:02.410Z,58.09
2019-03-05T15:04:31.467Z,57.61
2019-03-05T15:07:00.155Z,56.95
2019-03-05T15:09:28.986Z,57.94
2019-03-05T15:11:58.032Z,57.00
2019-03-05T15:14:26.970Z,56.91
2019-03-05T15:16:55.927Z,56.74
2019-03-05T15:19:24.935Z,56.99
2019-03-05T15:21:53.907Z,57.58
2019-03-05T15:24:22.802Z,56.48
2019-03-05T15:26:51.760Z,56.64
2019-03-05T15:29:20.468Z,57.01
2019-03-05T15:31:49.219Z,56.66
2019-03-05T15:34:18.188Z,57.32
2019-03-05T15:36:46.966Z,57.19
2019-03-05T15:39:15.929Z,56.74
2019-03-05T15:41:46.306Z,56.98
2019-03-05T15:44:15.572Z,57.43
2019-03-05T15:46:44.527Z,56.76
2019-03-05T15:49:13.568Z,56.29
2019-03-05T15:51:42.593Z,56.51
2019-03-05T15:54:11.509Z,56.27
2019-03-05T15:56:41.295Z,56.61
2019-03-05T15:59:10.524Z,57.91
2019-03-05T16:01:39.361Z,57.83
2019-03-05T16:04:08.648Z,58.22
2019-03-05T16:06:37.482Z,56.02
2019-03-05T16:09:16.167Z,56.10
2019-03-05T16:11:45.235Z,56.34
2019-03-05T16:14:14.020Z,56.24
2019-03-05T16:16:42.735Z,56.89
2019-03-05T16:19:12.438Z,56.42
2019-03-05T16:21:42.849Z,55.83
2019-03-05T16:24:11.677Z,56.01
2019-03-05T16:26:40.443Z,56.55
2019-03-05T16:29:09.558Z,56.44
2019-03-05T16:31:49.774Z,56.04
2019-03-05T16:34:36.808Z,56.45
2019-03-05T16:37:14.358Z,57.13
2019-03-05T16:40:05.122Z,58.05
2019-03-05T16:43:01.816Z,58.82
2019-03-05T16:45:55.554Z,59.09
2019-03-05T16:48:31.792Z,59.70
2019-03-05T16:51:31.604Z,59.21
2019-03-05T16:54:24.684Z,59.65
2019-03-05T16:57:08.039Z,60.21
2019-03-05T16:59:47.270Z,60.37
2019-03-05T17:02:33.946Z,60.29
2019-03-05T17:05:14.554Z,60.40
2019-03-05T17:07:56.327Z,61.00
2019-03-05T17:10:38.723Z,60.86
2019-03-05T17:13:07.907Z,61.11
2019-03-05T17:15:36.678Z,61.39
2019-03-05T17:18:08.208Z,61.58
2019-03-05T17:20:37.225Z,61.44
2019-03-05T17:23:06.658Z,61.92
2019-03-05T17:25:35.605Z,61.85
2019-03-05T17:28:04.379Z,62.02
2019-03-05T17:30:33.142Z,62.30
2019-03-05T17:33:02.225Z,62.38
2019-03-05T17:35:31.422Z,62.76
2019-03-05T17:38:00.237Z,62.80
2019-03-05T17:40:29.288Z,62.62
2019-03-05T17:42:57.968Z,62.69
2019-03-05T17:45:26.931Z,62.53
2019-03-05T17:47:56.300Z,62.59
2019-03-05T17:50:25.307Z,62.52
2019-03-05T17:52:54.076Z,62.09
2019-03-05T17:55:24.702Z,62.32
2019-03-05T17:57:53.996Z,62.36
2019-03-05T18:00:28.925Z,62.62
2019-03-05T18:02:57.596Z,63.04
2019-03-05T18:05:27.027Z,62.99
2019-03-05T18:07:56.094Z,63.07
2019-03-05T18:10:24.968Z,63.24
2019-03-05T18:12:53.715Z,63.14
2019-03-05T18:15:22.540Z,63.22
2019-03-05T18:17:51.237Z,63.21
2019-03-05T18:20:19.990Z,63.24
2019-03-05T18:22:48.933Z,63.42
2019-03-05T18:25:18.121Z,63.39
2019-03-05T18:27:46.989Z,63.67
2019-03-05T18:30:19.613Z,63.65
2019-03-05T18:32:48.376Z,63.89
2019-03-05T18:35:17.249Z,64.18
2019-03-05T18:37:46.578Z,64.36
2019-03-05T18:40:16.176Z,64.28
2019-03-05T18:42:45.071Z,64.52
2019-03-05T18:45:24.012Z,65.14
2019-03-05T18:47:52.876Z,65.16
2019-03-05T18:50:21.882Z,65.40
2019-03-05T18:52:51.338Z,65.72
2019-03-05T18:55:20.995Z,65.92
2019-03-05T18:57:49.748Z,66.24
2019-03-05T19:00:22.806Z,66.93
2019-03-05T19:02:52.882Z,67.26
2019-03-05T19:05:22.071Z,67.23
2019-03-05T19:07:51.364Z,67.49
2019-03-05T19:10:21.063Z,67.46
2019-03-05T19:12:50.100Z,67.59
2019-03-05T19:15:20.508Z,67.75
2019-03-05T19:17:49.629Z,68.04
2019-03-05T19:20:20.249Z,68.17
2019-03-05T19:22:49.590Z,68.37
2019-03-05T19:25:20.695Z,68.78
2019-03-05T19:27:49.648Z,69.12
2019-03-05T19:30:20.879Z,69.54
2019-03-05T19:32:49.737Z,69.56
2019-03-05T19:35:18.739Z,69.70
2019-03-05T19:37:48.584Z,70.16
2019-03-05T19:40:19.660Z,70.70
2019-03-05T19:42:48.763Z,70.50
2019-03-05T19:45:17.952Z,70.46
2019-03-05T19:47:47.205Z,70.31
2019-03-05T19:50:17.465Z,70.36
2019-03-05T19:52:46.323Z,70.28
2019-03-05T19:55:17.124Z,70.49
2019-03-05T19:57:46.009Z,70.71
2019-03-05T20:00:17.589Z,70.95
2019-03-05T20:02:46.642Z,71.12
2019-03-05T20:05:16.536Z,71.32
2019-03-05T20:07:45.368Z,71.50
2019-03-05T20:10:16.363Z,71.80
2019-03-05T20:12:45.416Z,71.83
2019-03-05T20:15:15.957Z,71.93
2019-03-05T20:17:46.764Z,71.83
2019-03-05T20:20:18.029Z,71.85
2019-03-05T20:22:47.087Z,71.83
2019-03-05T20:25:17.770Z,71.92
2019-03-05T20:27:48.287Z,72.03
2019-03-05T20:30:17.947Z,72.16
2019-03-05T20:32:46.823Z,71.91
2019-03-05T20:35:16.213Z,72.24
2019-03-05T20:37:45.102Z,72.43
2019-03-05T20:40:15.917Z,72.04
2019-03-05T20:42:44.611Z,72.17
2019-03-05T20:45:16.364Z,72.36
2019-03-05T20:47:45.305Z,72.25
2019-03-05T20:50:14.274Z,72.40
2019-03-05T20:52:44.887Z,72.65
2019-03-05T20:55:15.099Z,72.69
2019-03-05T20:57:44.132Z,72.64
2019-03-05T21:00:24.418Z,72.94
2019-03-05T21:02:53.758Z,72.77
2019-03-05T21:05:22.627Z,72.39
2019-03-05T21:07:52.009Z,71.93
2019-03-05T21:10:21.109Z,71.54
2019-03-05T21:12:49.895Z,71.50
2019-03-05T21:15:18.727Z,71.35
2019-03-05T21:17:47.474Z,71.14
2019-03-05T21:20:16.461Z,71.22
2019-03-05T21:22:45.165Z,71.52
2019-03-05T21:25:14.799Z,71.50
2019-03-05T21:27:44.463Z,71.19
2019-03-05T21:30:15.578Z,71.36
2019-03-05T21:32:44.418Z,71.33
2019-03-05T21:35:13.470Z,71.50
2019-03-05T21:37:42.304Z,71.56
2019-03-05T21:40:16.961Z,71.47
2019-03-05T21:42:45.683Z,71.71
2019-03-05T21:45:20.181Z,71.29
2019-03-05T21:47:48.879Z,71.36
2019-03-05T21:50:17.794Z,71.21
2019-03-05T21:52:46.545Z,71.01
2019-03-05T21:55:17.001Z,70.81
2019-03-05T21:57:45.757Z,70.87
2019-03-05T22:00:17.952Z,71.04
2019-03-05T22:02:46.725Z,70.96
2019-03-05T22:05:15.629Z,71.04
2019-03-05T22:07:44.451Z,71.02
2019-03-05T22:10:15.623Z,71.01
2019-03-05T22:12:44.336Z,71.21
2019-03-05T22:15:14.891Z,71.25
2019-03-05T22:17:43.604Z,71.40
2019-03-05T22:20:13.144Z,71.46
2019-03-05T22:22:42.099Z,71.73
2019-03-05T22:25:13.225Z,71.79
2019-03-05T22:27:42.205Z,71.67
2019-03-05T22:30:14.322Z,71.81
2019-03-05T22:32:42.430Z,72.20
2019-03-05T22:35:13.596Z,72.50
2019-03-05T22:37:42.660Z,72.57
2019-03-05T22:40:11.528Z,72.65
2019-03-05T22:42:40.565Z,72.92
2019-03-05T22:45:11.981Z,72.85
2019-03-05T22:47:40.675Z,72.84
2019-03-05T22:50:10.164Z,72.93
2019-03-05T22:52:39.175Z,73.31
2019-03-05T22:55:08.478Z,73.51
2019-03-05T22:57:37.190Z,73.66
2019-03-05T23:00:10.367Z,73.71
2019-03-05T23:02:39.467Z,73.75
2019-03-05T23:05:09.807Z,73.73
2019-03-05T23:07:38.576Z,73.77
2019-03-05T23:10:08.596Z,73.71
2019-03-05T23:12:37.816Z,73.65
2019-03-05T23:15:07.730Z,73.71
2019-03-05T23:17:36.678Z,73.75
2019-03-05T23:20:06.005Z,73.76
2019-03-05T23:22:34.711Z,73.68
2019-03-05T23:25:03.625Z,73.83
2019-03-05T23:27:33.399Z,74.03
2019-03-05T23:30:02.370Z,74.14
2019-03-05T23:32:31.347Z,74.14
2019-03-05T23:35:00.290Z,73.97
2019-03-05T23:37:29.001Z,74.08
2019-03-05T23:39:57.942Z,74.05
2019-03-05T23:42:26.783Z,74.23
2019-03-05T23:44:55.494Z,74.28
2019-03-05T23:47:24.446Z,74.48
2019-03-05T23:49:53.469Z,74.61
2019-03-05T23:52:22.482Z,74.54
2019-03-05T23:54:51.198Z,74.45
2019-03-05T23:57:19.898Z,74.30
2019-03-05T23:59:48.827Z,74.22
